Time;durP1;ratioP1;P1;durP2;ratioP2;P2;SDS_P1;SDS_P2;PMS_P1;PMS_P2;Temp;Humidity;BMP_temperature;BMP_pressure;BME280_temperature;BME280_humidity;BME280_pressure;Samples;Min_cycle;Max_cycle;Signal;HPM_P1;HPM_P2
2023/05/17 00:00:57;;;;;;;;;;;;;;;-140.72;100.00;52843.38;5089790;28;19960;-71
2023/05/17 00:03:22;;;;;;;;;;;;;;;-140.72;100.00;52825.13;5089718;28;20381;-71
2023/05/17 00:05:47;;;;;;;;;;;;;;;-140.72;100.00;52819.03;5082058;28;20323;-70
2023/05/17 00:08:12;;;;;;;;;;;;;;;-140.72;100.00;52812.94;5093746;28;19924;-70
2023/05/17 00:10:38;;;;;;;;;;;;;;;-140.72;100.00;52843.38;5088565;28;19928;-70
2023/05/17 00:13:03;;;;;;;;;;;;;;;-140.72;100.00;52817.00;5093150;28;19943;-70
2023/05/17 00:15:28;;;;;;;;;;;;;;;-140.72;100.00;52821.06;5089080;28;20022;-70
2023/05/17 00:17:54;;;;;;;;;;;;;;;-140.72;100.00;52843.38;5094051;28;20223;-70
2023/05/17 00:20:19;;;;;;;;;;;;;;;-140.72;100.00;52833.22;5089057;28;20380;-70
2023/05/17 00:22:46;;;;;;;;;;;;;;;-140.72;100.00;52827.16;5090065;28;20443;-71
2023/05/17 00:25:13;;;;;;;;;;;;;;;-140.72;100.00;52833.22;5090697;28;20014;-70
2023/05/17 00:27:38;;;;;;;;;;;;;;;-140.72;100.00;52804.81;5090043;28;19920;-70
2023/05/17 00:30:10;;;;;;;;;;;;;;;-140.72;100.00;52794.69;5094101;28;19925;-70
2023/05/17 00:32:35;;;;;;;;;;;;;;;-140.72;100.00;52843.38;5087080;28;19928;-71
2023/05/17 00:35:00;;;;;;;;;;;;;;;-140.72;100.00;52819.03;5082999;28;20263;-70
2023/05/17 00:37:25;;;;;;;;;;;;;;;-140.72;100.00;52808.88;5088641;28;19932;-71
2023/05/17 00:39:51;;;;;;;;;;;;;;;-140.72;100.00;52804.81;5092756;28;19935;-70
2023/05/17 00:42:17;;;;;;;;;;;;;;;-140.72;100.00;52831.19;5084739;28;20118;-70
2023/05/17 00:44:42;;;;;;;;;;;;;;;-140.72;100.00;52833.22;5091710;28;20327;-70
2023/05/17 00:47:07;;;;;;;;;;;;;;;-140.72;100.00;52790.63;5095197;28;19920;-70
2023/05/17 00:49:32;;;;;;;;;;;;;;;-140.72;100.00;52853.53;5097294;28;20276;-71
2023/05/17 00:51:58;;;;;;;;;;;;;;;-140.72;100.00;52792.66;5095282;28;19920;-71
2023/05/17 00:54:24;;;;;;;;;;;;;;;-140.72;100.00;52827.16;5095447;28;19920;-70
2023/05/17 00:56:50;;;;;;;;;;;;;;;-140.72;100.00;52817.00;5093342;28;19927;-70
2023/05/17 00:59:16;;;;;;;;;;;;;;;-140.72;100.00;52855.56;5090785;28;19928;-70
2023/05/17 01:01:41;;;;;;;;;;;;;;;-140.72;100.00;52823.09;5081907;28;20012;-70
2023/05/17 01:04:07;;;;;;;;;;;;;;;-140.72;100.00;52817.00;5091503;28;19927;-70
2023/05/17 01:06:44;;;;;;;;;;;;;;;-140.72;100.00;52776.41;5092200;28;19920;-70
2023/05/17 01:09:09;;;;;;;;;;;;;;;-140.72;100.00;52831.19;5093429;28;19920;-70
2023/05/17 01:11:35;;;;;;;;;;;;;;;-140.72;100.00;52833.22;5100069;28;20260;-70
2023/05/17 01:14:06;;;;;;;;;;;;;;;-140.72;100.00;52794.69;5100349;28;19920;-71
2023/05/17 01:16:31;;;;;;;;;;;;;;;-140.72;100.00;52817.00;5090839;28;20379;-70
2023/05/17 01:18:59;;;;;;;;;;;;;;;-140.72;100.00;52825.13;5093728;28;19966;-70
2023/05/17 01:21:34;;;;;;;;;;;;;;;-140.72;100.00;52863.66;5088692;28;19921;-70
2023/05/17 01:24:18;;;;;;;;;;;;;;;-140.72;100.00;52829.19;5093001;28;19941;-70
2023/05/17 01:26:46;;;;;;;;;;;;;;;-140.72;100.00;52802.78;5091032;28;19921;-70
2023/05/17 01:29:13;;;;;;;;;;;;;;;-140.72;100.00;52825.13;5106762;28;19959;-70
2023/05/17 01:31:38;;;;;;;;;;;;;;;-140.72;100.00;52823.09;5096966;28;20383;-70
2023/05/17 01:34:10;;;;;;;;;;;;;;;-140.72;100.00;52863.66;5095713;28;19919;-70
2023/05/17 01:36:36;;;;;;;;;;;;;;;-140.72;100.00;52812.94;5087477;28;19923;-70
2023/05/17 01:39:01;;;;;;;;;;;;;;;-140.72;100.00;52819.03;5091705;28;19920;-70
2023/05/17 01:41:35;;;;;;;;;;;;;;;-140.72;100.00;52792.66;5095864;28;19974;-70
2023/05/17 01:44:19;;;;;;;;;;;;;;;-140.72;100.00;52800.75;5084836;28;19951;-70
2023/05/17 01:46:46;;;;;;;;;;;;;;;-140.72;100.00;52800.75;5089815;28;19956;-71
2023/05/17 01:49:23;;;;;;;;;;;;;;;-140.72;100.00;52817.00;5095096;28;20016;-70
2023/05/17 01:52:05;;;;;;;;;;;;;;;-140.72;100.00;52817.00;5098917;28;19928;-70
2023/05/17 01:54:32;;;;;;;;;;;;;;;-140.72;100.00;52812.94;5089913;28;19916;-70
2023/05/17 01:56:58;;;;;;;;;;;;;;;-140.72;100.00;52770.31;5093054;28;19923;-70
2023/05/17 01:59:24;;;;;;;;;;;;;;;-140.72;100.00;52810.91;5095719;28;20012;-71
2023/05/17 02:02:05;;;;;;;;;;;;;;;-140.72;100.00;52827.16;5102558;28;19920;-71
2023/05/17 02:04:30;;;;;;;;;;;;;;;-140.72;100.00;52806.84;5092899;28;19932;-71
2023/05/17 02:06:56;;;;;;;;;;;;;;;-140.72;100.00;52784.53;5107822;28;19920;-71
2023/05/17 02:09:21;;;;;;;;;;;;;;;-140.72;100.00;52843.38;5107350;28;20286;-71
2023/05/17 02:11:46;;;;;;;;;;;;;;;-140.72;100.00;52812.94;5105548;28;20385;-71
2023/05/17 02:14:11;;;;;;;;;;;;;;;-140.72;100.00;52823.09;5102259;28;19920;-71
2023/05/17 02:16:36;;;;;;;;;;;;;;;-140.72;100.00;52869.75;5102083;28;19935;-71
2023/05/17 02:19:02;;;;;;;;;;;;;;;-140.72;100.00;52808.88;5104971;28;19920;-71
2023/05/17 02:21:27;;;;;;;;;;;;;;;-140.72;100.00;52819.03;5096294;28;20370;-71
2023/05/17 02:23:52;;;;;;;;;;;;;;;-140.72;100.00;52812.94;5088842;27;19922;-71
2023/05/17 02:26:17;;;;;;;;;;;;;;;-140.72;100.00;52853.53;5095997;28;19982;-71
2023/05/17 02:28:43;;;;;;;;;;;;;;;-140.72;100.00;52863.66;5094422;28;19920;-71
2023/05/17 02:31:08;;;;;;;;;;;;;;;-140.72;100.00;52821.06;5087575;28;19920;-71
2023/05/17 02:33:34;;;;;;;;;;;;;;;-140.72;100.00;52849.47;5090601;28;19920;-71
2023/05/17 02:35:59;;;;;;;;;;;;;;;-140.72;100.00;52823.09;5080702;28;19924;-71
2023/05/17 02:38:24;;;;;;;;;;;;;;;-140.72;100.00;52817.00;5084917;28;19916;-71
2023/05/17 02:40:49;;;;;;;;;;;;;;;-140.72;100.00;52841.34;5087857;28;19916;-71
2023/05/17 02:43:15;;;;;;;;;;;;;;;-140.72;100.00;52841.34;5085556;28;19926;-71
2023/05/17 02:45:42;;;;;;;;;;;;;;;-140.72;100.00;52833.22;5085508;28;19920;-71
2023/05/17 02:48:07;;;;;;;;;;;;;;;-140.72;100.00;52798.72;5092068;28;19966;-71
2023/05/17 02:50:32;;;;;;;;;;;;;;;-140.72;100.00;52849.47;5090308;28;19966;-71
2023/05/17 02:52:57;;;;;;;;;;;;;;;-140.72;100.00;52817.00;5088048;28;19956;-71
2023/05/17 02:55:23;;;;;;;;;;;;;;;-140.72;100.00;52823.09;5084544;28;19966;-71
2023/05/17 02:57:48;;;;;;;;;;;;;;;-140.72;100.00;52827.16;5085138;28;20298;-71
2023/05/17 03:00:15;;;;;;;;;;;;;;;-140.72;100.00;52810.91;5082225;28;20010;-71
2023/05/17 03:02:40;;;;;;;;;;;;;;;-140.72;100.00;52851.50;5097469;28;19981;-71
2023/05/17 03:05:07;;;;;;;;;;;;;;;-140.72;100.00;52812.94;5085189;28;20358;-71
2023/05/17 03:07:32;;;;;;;;;;;;;;;-140.72;100.00;52845.41;5092654;28;19920;-71
2023/05/17 03:09:57;;;;;;;;;;;;;;;-140.72;100.00;52851.50;5089174;28;19920;-71
2023/05/17 03:12:22;;;;;;;;;;;;;;;-140.72;100.00;52808.88;5095785;28;19927;-71
2023/05/17 03:14:47;;;;;;;;;;;;;;;-140.72;100.00;52831.19;5094895;28;19937;-71
2023/05/17 03:17:13;;;;;;;;;;;;;;;-140.72;100.00;52829.19;5100834;28;19955;-70
2023/05/17 03:19:38;;;;;;;;;;;;;;;-140.72;100.00;52829.19;5101584;28;20433;-70
2023/05/17 03:22:03;;;;;;;;;;;;;;;-140.72;100.00;52821.06;5095394;28;19959;-70
2023/05/17 03:24:28;;;;;;;;;;;;;;;-140.72;100.00;52823.09;5101029;28;19943;-70
2023/05/17 03:26:54;;;;;;;;;;;;;;;-140.72;100.00;52804.81;5096393;28;19920;-70
2023/05/17 03:29:19;;;;;;;;;;;;;;;-140.72;100.00;52855.56;5094847;28;19934;-70
2023/05/17 03:31:44;;;;;;;;;;;;;;;-140.72;100.00;52833.22;5098471;28;19951;-70
2023/05/17 03:34:10;;;;;;;;;;;;;;;-140.72;100.00;52804.81;5098516;28;19920;-70
2023/05/17 03:36:35;;;;;;;;;;;;;;;-140.72;100.00;52810.91;5098556;28;19920;-70
2023/05/17 03:39:00;;;;;;;;;;;;;;;-140.72;100.00;52829.19;5101466;28;19926;-70
2023/05/17 03:41:25;;;;;;;;;;;;;;;-140.72;100.00;52845.41;5093257;28;19927;-70
2023/05/17 03:43:51;;;;;;;;;;;;;;;-140.72;100.00;52865.69;5097662;28;20349;-70
2023/05/17 03:46:16;;;;;;;;;;;;;;;-140.72;100.00;52829.19;5098269;28;20349;-70
2023/05/17 03:48:41;;;;;;;;;;;;;;;-140.72;100.00;52833.22;5102736;28;19919;-70
2023/05/17 03:51:06;;;;;;;;;;;;;;;-140.72;100.00;52814.97;5103685;28;19928;-70
2023/05/17 03:53:31;;;;;;;;;;;;;;;-140.72;100.00;52841.34;5096459;28;19980;-70
2023/05/17 03:55:57;;;;;;;;;;;;;;;-140.72;100.00;52881.94;5101258;28;19930;-70
2023/05/17 03:58:22;;;;;;;;;;;;;;;-140.72;100.00;52841.34;5089983;28;19935;-71
2023/05/17 04:00:47;;;;;;;;;;;;;;;-140.72;100.00;52812.94;5099054;28;19984;-70
2023/05/17 04:03:12;;;;;;;;;;;;;;;-140.72;100.00;52865.69;5097546;28;19920;-70
2023/05/17 04:05:38;;;;;;;;;;;;;;;-140.72;100.00;52810.91;5092524;28;20000;-70
2023/05/17 04:08:04;;;;;;;;;;;;;;;-140.72;100.00;52833.22;5090309;28;19924;-70
2023/05/17 04:10:29;;;;;;;;;;;;;;;-140.72;100.00;52841.34;5096922;28;19927;-70
2023/05/17 04:12:54;;;;;;;;;;;;;;;-140.72;100.00;52843.38;5095194;28;20016;-70
2023/05/17 04:15:19;;;;;;;;;;;;;;;-140.72;100.00;52865.69;5095854;28;19920;-70
2023/05/17 04:17:45;;;;;;;;;;;;;;;-140.72;100.00;52794.69;5090930;28;19927;-71
2023/05/17 04:20:10;;;;;;;;;;;;;;;-140.72;100.00;52841.34;5102748;28;19919;-70
2023/05/17 04:22:35;;;;;;;;;;;;;;;-140.72;100.00;52806.84;5114221;27;19924;-70
2023/05/17 04:25:00;;;;;;;;;;;;;;;-140.72;100.00;52812.94;5096663;28;19921;-71
2023/05/17 04:27:26;;;;;;;;;;;;;;;-140.72;100.00;52833.22;5088826;28;19924;-71
2023/05/17 04:29:51;;;;;;;;;;;;;;;-140.72;100.00;52794.69;5096651;28;19932;-71
2023/05/17 04:32:16;;;;;;;;;;;;;;;-140.72;100.00;52833.22;5100338;28;19923;-71
2023/05/17 04:34:42;;;;;;;;;;;;;;;-140.72;100.00;52845.41;5086839;27;19927;-71
2023/05/17 04:37:07;;;;;;;;;;;;;;;-140.72;100.00;52837.28;5091011;28;19924;-71
2023/05/17 04:39:32;;;;;;;;;;;;;;;-140.72;100.00;52833.22;5088352;28;19919;-71
2023/05/17 04:41:57;;;;;;;;;;;;;;;-140.72;100.00;52810.91;5091139;28;19917;-71
2023/05/17 04:44:23;;;;;;;;;;;;;;;-140.72;100.00;52819.03;5083074;28;19968;-73
2023/05/17 04:46:49;;;;;;;;;;;;;;;-140.72;100.00;52798.72;5098631;28;20056;-71
2023/05/17 04:49:14;;;;;;;;;;;;;;;-140.72;100.00;52879.91;5092602;28;19921;-72
2023/05/17 04:51:39;;;;;;;;;;;;;;;-140.72;100.00;52847.44;5098476;28;20007;-72
2023/05/17 04:54:07;;;;;;;;;;;;;;;-140.72;100.00;52839.31;5096273;28;19927;-72
2023/05/17 04:56:33;;;;;;;;;;;;;;;-140.72;100.00;52845.41;5097404;28;19920;-72
2023/05/17 04:58:58;;;;;;;;;;;;;;;-140.72;100.00;52821.06;5097231;28;20374;-71
2023/05/17 05:01:24;;;;;;;;;;;;;;;-140.72;100.00;52892.09;5101552;28;19920;-73
2023/05/17 05:03:49;;;;;;;;;;;;;;;-140.72;100.00;52823.09;5089422;28;19943;-71
2023/05/17 05:06:15;;;;;;;;;;;;;;;-140.72;100.00;52851.50;5103923;28;19920;-72
2023/05/17 05:08:40;;;;;;;;;;;;;;;-140.72;100.00;52794.69;5093114;28;20022;-73
2023/05/17 05:11:05;;;;;;;;;;;;;;;-140.72;100.00;52817.00;5094711;28;19928;-73
2023/05/17 05:13:31;;;;;;;;;;;;;;;-140.72;100.00;52792.66;5098181;28;20290;-73
2023/05/17 05:15:56;;;;;;;;;;;;;;;-140.72;100.00;52849.47;5094883;28;19924;-73
2023/05/17 05:18:21;;;;;;;;;;;;;;;-140.72;100.00;52845.41;5090546;28;20379;-72
2023/05/17 05:20:47;;;;;;;;;;;;;;;-140.72;100.00;52808.88;5092980;28;19924;-72
2023/05/17 05:23:13;;;;;;;;;;;;;;;-140.72;100.00;52814.97;5099347;28;19923;-72
2023/05/17 05:25:38;;;;;;;;;;;;;;;-140.72;100.00;52804.81;5086720;28;21303;-73
2023/05/17 05:28:03;;;;;;;;;;;;;;;-140.72;100.00;52817.00;5094279;28;19947;-72
2023/05/17 05:30:28;;;;;;;;;;;;;;;-140.72;100.00;52776.41;5098041;28;19936;-72
2023/05/17 05:32:54;;;;;;;;;;;;;;;-140.72;100.00;52768.28;5104668;28;19920;-73
2023/05/17 05:35:19;;;;;;;;;;;;;;;-140.72;100.00;52808.88;5096400;28;19919;-72
2023/05/17 05:37:44;;;;;;;;;;;;;;;-140.72;100.00;52821.06;5103534;28;19926;-72
2023/05/17 05:40:10;;;;;;;;;;;;;;;-140.72;100.00;52825.13;5091593;28;19924;-73
2023/05/17 05:42:35;;;;;;;;;;;;;;;-140.72;100.00;52776.41;5097581;28;20372;-73
2023/05/17 05:45:01;;;;;;;;;;;;;;;-140.72;100.00;52802.78;5086573;28;19920;-72
2023/05/17 05:47:26;;;;;;;;;;;;;;;-140.72;100.00;52829.19;5087942;28;19960;-73
2023/05/17 05:49:51;;;;;;;;;;;;;;;-140.72;100.00;52764.25;5089602;28;19920;-72
2023/05/17 05:52:16;;;;;;;;;;;;;;;-140.72;100.00;52823.09;5082504;28;19977;-71
2023/05/17 05:54:47;;;;;;;;;;;;;;;-140.72;100.00;52772.34;5080252;28;19916;-72
2023/05/17 05:57:12;;;;;;;;;;;;;;;-140.72;100.00;52800.75;5089303;28;19965;-71
2023/05/17 05:59:37;;;;;;;;;;;;;;;-140.72;100.00;52792.66;5084309;28;20324;-74
2023/05/17 06:02:05;;;;;;;;;;;;;;;-140.72;100.00;52802.78;5092840;28;19916;-71
2023/05/17 06:04:30;;;;;;;;;;;;;;;-140.72;100.00;52764.25;5088352;28;19920;-71
2023/05/17 06:06:55;;;;;;;;;;;;;;;-140.72;100.00;52774.38;5099819;28;20346;-71
2023/05/17 06:09:21;;;;;;;;;;;;;;;-140.72;100.00;52772.34;5086782;28;19928;-71
2023/05/17 06:11:46;;;;;;;;;;;;;;;-140.72;100.00;52806.84;5096509;28;19921;-72
2023/05/17 06:14:11;;;;;;;;;;;;;;;-140.72;100.00;52737.84;5094472;28;19916;-77
2023/05/17 06:16:36;;;;;;;;;;;;;;;-140.72;100.00;52780.47;5087175;28;19924;-74
2023/05/17 06:19:02;;;;;;;;;;;;;;;-140.72;100.00;52754.09;5087967;28;19920;-71
2023/05/17 06:21:27;;;;;;;;;;;;;;;-140.72;100.00;52780.47;5098831;28;19937;-71
2023/05/17 06:23:52;;;;;;;;;;;;;;;-140.72;100.00;52772.34;5095489;28;20389;-71
2023/05/17 06:26:18;;;;;;;;;;;;;;;-140.72;100.00;52764.25;5114056;28;19938;-71
2023/05/17 06:28:43;;;;;;;;;;;;;;;-140.72;100.00;52768.28;5106591;28;20401;-71
2023/05/17 06:31:08;;;;;;;;;;;;;;;-140.72;100.00;52737.84;5111491;28;19916;-71
2023/05/17 06:33:33;;;;;;;;;;;;;;;-140.72;100.00;52743.94;5095331;28;19965;-71
2023/05/17 06:35:58;;;;;;;;;;;;;;;-140.72;100.00;52727.72;5108918;28;19919;-72
2023/05/17 06:38:24;;;;;;;;;;;;;;;-140.72;100.00;52727.72;5092388;28;20091;-72
2023/05/17 06:40:53;;;;;;;;;;;;;;;-140.72;100.00;52729.75;5088544;28;20199;-71
2023/05/17 06:43:18;;;;;;;;;;;;;;;-140.72;100.00;52711.47;5074654;28;19970;-72
2023/05/17 06:45:43;;;;;;;;;;;;;;;-140.72;100.00;52713.50;5085767;28;19971;-72
2023/05/17 06:48:09;;;;;;;;;;;;;;;-140.72;100.00;52683.06;5078729;28;19917;-72
2023/05/17 06:50:34;;;;;;;;;;;;;;;-140.72;100.00;52679.00;5088930;28;20358;-72
2023/05/17 06:53:00;;;;;;;;;;;;;;;-140.72;100.00;52674.94;5074122;28;20394;-72
2023/05/17 06:55:25;;;;;;;;;;;;;;;-140.72;100.00;52674.94;5081140;28;19920;-72
2023/05/17 06:57:50;;;;;;;;;;;;;;;-140.72;100.00;52707.41;5081752;28;19923;-72
2023/05/17 07:00:16;;;;;;;;;;;;;;;-140.72;70.74;52743.94;5087087;28;20389;-73
2023/05/17 07:02:41;;;;;;;;;;;;;;;-140.72;53.97;52752.06;5089175;28;19927;-74
2023/05/17 07:05:06;;;;;;;;;;;;;;;-140.72;59.72;52654.66;5100110;28;19943;-74
2023/05/17 07:07:32;;;;;;;;;;;;;;;-140.72;52.20;52723.66;5093543;28;19916;-73
2023/05/17 07:09:57;;;;;;;;;;;;;;;-140.72;32.58;52741.91;5097373;28;20033;-73
2023/05/17 07:12:22;;;;;;;;;;;;;;;-140.72;27.39;52709.44;5092196;28;19955;-73
2023/05/17 07:14:47;;;;;;;;;;;;;;;-140.72;14.92;52731.75;5085707;28;19928;-73
2023/05/17 07:17:12;;;;;;;;;;;;;;;-140.72;31.64;52723.66;5080203;28;19970;-73
2023/05/17 07:19:38;;;;;;;;;;;;;;;-140.72;27.18;52705.38;5084698;28;19926;-73
2023/05/17 07:22:03;;;;;;;;;;;;;;;-140.72;19.65;52727.72;5082251;28;19916;-73
2023/05/17 07:24:28;;;;;;;;;;;;;;;-140.72;16.45;52676.97;5090220;28;20007;-73
2023/05/17 07:26:53;;;;;;;;;;;;;;;-140.72;16.25;52721.63;5087478;28;19958;-75
2023/05/17 07:29:18;;;;;;;;;;;;;;;-140.72;19.40;52715.53;5096675;28;20011;-74
2023/05/17 07:31:44;;;;;;;;;;;;;;;-140.72;0.00;52672.91;5092743;28;19923;-75
2023/05/17 07:34:09;;;;;;;;;;;;;;;-140.72;0.00;52689.16;5084284;28;19927;-73
2023/05/17 07:36:34;;;;;;;;;;;;;;;-140.72;0.00;52664.81;5087504;28;19920;-77
2023/05/17 07:39:00;;;;;;;;;;;;;;;-140.72;0.00;52721.63;5085305;28;19928;-74
2023/05/17 07:41:26;;;;;;;;;;;;;;;-140.72;0.00;52689.16;5087438;28;19920;-73
2023/05/17 07:43:51;;;;;;;;;;;;;;;-140.72;0.00;52689.16;5082198;28;19930;-71
2023/05/17 07:46:16;;;;;;;;;;;;;;;-140.72;0.00;52723.66;5090310;28;19924;-75
2023/05/17 07:48:42;;;;;;;;;;;;;;;-140.72;0.00;52650.59;5083879;28;19927;-72
2023/05/17 07:51:07;;;;;;;;;;;;;;;-140.72;0.00;52674.94;5090826;28;20454;-73
2023/05/17 07:53:32;;;;;;;;;;;;;;;-140.72;0.00;52674.94;5089027;28;19928;-72
2023/05/17 07:55:57;;;;;;;;;;;;;;;-140.72;0.00;52687.13;5080029;28;19927;-72
2023/05/17 07:58:23;;;;;;;;;;;;;;;-140.72;0.00;52679.00;5089116;28;19920;-72
2023/05/17 08:00:48;;;;;;;;;;;;;;;-140.72;0.00;52638.41;5084598;28;19920;-73
2023/05/17 08:03:13;;;;;;;;;;;;;;;-140.72;0.00;52638.41;5090807;28;19931;-73
2023/05/17 08:05:38;;;;;;;;;;;;;;;-140.72;0.00;52660.75;5078086;28;19928;-73
2023/05/17 08:08:04;;;;;;;;;;;;;;;-140.72;0.00;52597.84;5091561;28;19924;-72
2023/05/17 08:10:29;;;;;;;;;;;;;;;-140.72;0.00;52670.88;5082596;28;19921;-73
2023/05/17 08:12:54;;;;;;;;;;;;;;;-140.72;0.00;52638.41;5080670;28;19989;-72
2023/05/17 08:15:20;;;;;;;;;;;;;;;-140.72;0.00;52557.25;5084029;28;20333;-75
2023/05/17 08:17:45;;;;;;;;;;;;;;;-140.72;0.00;52634.38;5088601;28;19920;-72
2023/05/17 08:20:11;;;;;;;;;;;;;;;-140.72;0.00;52664.81;5093678;28;19973;-72
2023/05/17 08:22:36;;;;;;;;;;;;;;;-140.72;0.00;52636.38;5088159;28;19947;-74
2023/05/17 08:25:02;;;;;;;;;;;;;;;-140.72;0.00;52660.75;5087244;28;19920;-73
2023/05/17 08:27:29;;;;;;;;;;;;;;;-140.72;0.00;52626.25;5092169;28;19924;-73
2023/05/17 08:29:56;;;;;;;;;;;;;;;-140.72;0.00;52610.00;5086001;28;19931;-73
2023/05/17 08:32:22;;;;;;;;;;;;;;;-140.72;0.00;52614.06;5089448;28;19965;-82
2023/05/17 08:34:47;;;;;;;;;;;;;;;-140.72;0.00;52577.53;5086451;28;20019;-71
2023/05/17 08:37:13;;;;;;;;;;;;;;;-140.72;0.00;52610.00;5089724;28;19919;-71
2023/05/17 08:39:38;;;;;;;;;;;;;;;-140.72;0.00;52620.16;5090528;28;20034;-71
2023/05/17 08:42:20;;;;;;;;;;;;;;;-140.72;0.00;52614.06;5080895;28;20378;-71
2023/05/17 08:44:46;;;;;;;;;;;;;;;-140.72;0.00;52516.66;5072760;28;19923;-71
2023/05/17 08:47:11;;;;;;;;;;;;;;;-140.72;0.00;52567.41;5088193;28;20321;-71
2023/05/17 08:49:37;;;;;;;;;;;;;;;-140.72;0.00;52530.88;5087900;28;19926;-71
2023/05/17 08:52:08;;;;;;;;;;;;;;;-140.72;0.00;52512.59;5090497;28;19989;-71
2023/05/17 08:54:34;;;;;;;;;;;;;;;-140.72;0.00;52545.06;5090312;28;19955;-71
2023/05/17 08:57:01;;;;;;;;;;;;;;;-140.72;0.00;52524.78;5090292;28;19971;-72
2023/05/17 08:59:32;;;;;;;;;;;;;;;-140.72;0.00;52504.50;5089369;28;19985;-71
2023/05/17 09:01:58;;;;;;;;;;;;;;;-140.72;0.00;52528.84;5078971;28;20401;-72
2023/05/17 09:04:23;;;;;;;;;;;;;;;-140.72;0.00;52490.28;5087157;28;19920;-71
2023/05/17 09:06:49;;;;;;;;;;;;;;;-140.72;0.00;52480.16;5087373;28;19927;-71
2023/05/17 09:09:14;;;;;;;;;;;;;;;-140.72;0.00;52494.34;5090414;28;19916;-71
2023/05/17 09:11:40;;;;;;;;;;;;;;;-140.72;0.00;52457.81;5087220;28;19916;-71
2023/05/17 09:14:06;;;;;;;;;;;;;;;-140.72;0.00;52498.41;5092073;28;19927;-72
2023/05/17 09:16:33;;;;;;;;;;;;;;;-140.72;0.00;52467.97;5101026;28;19991;-71
2023/05/17 09:18:59;;;;;;;;;;;;;;;-140.72;0.00;52467.97;5096700;28;20378;-72
2023/05/17 09:21:26;;;;;;;;;;;;;;;-140.72;0.00;52470.00;5092689;28;19920;-71
2023/05/17 09:23:51;;;;;;;;;;;;;;;-140.72;0.00;52437.53;5090951;28;19927;-71
2023/05/17 09:26:17;;;;;;;;;;;;;;;-140.72;0.00;52445.66;5088308;28;19939;-71
2023/05/17 09:28:43;;;;;;;;;;;;;;;-140.72;0.00;52407.09;5090841;28;19920;-70
2023/05/17 09:31:08;;;;;;;;;;;;;;;-140.72;0.00;52390.84;5090205;27;19923;-70
2023/05/17 09:33:41;;;;;;;;;;;;;;;-140.72;0.00;52378.69;5115373;27;19920;-72
2023/05/17 09:36:13;;;;;;;;;;;;;;;-140.72;0.00;52354.34;5097734;28;19926;-71
2023/05/17 09:38:39;;;;;;;;;;;;;;;-140.72;0.00;52376.66;5093452;28;20047;-71
2023/05/17 09:41:05;;;;;;;;;;;;;;;-140.72;0.00;52344.19;5105090;28;19916;-71
2023/05/17 09:43:31;;;;;;;;;;;;;;;-140.72;0.00;52334.03;5088397;28;20347;-71
2023/05/17 09:45:56;;;;;;;;;;;;;;;-140.72;0.00;52350.28;5086496;28;19917;-71
2023/05/17 09:48:24;;;;;;;;;;;;;;;-140.72;0.00;52311.72;5082613;28;19920;-71
2023/05/17 09:50:50;;;;;;;;;;;;;;;-140.72;0.00;52327.97;5088296;28;19924;-71
2023/05/17 09:53:22;;;;;;;;;;;;;;;-140.72;0.00;52325.94;5099560;28;19920;-71
2023/05/17 09:55:47;;;;;;;;;;;;;;;-140.72;0.00;52321.88;5089696;28;20388;-71
2023/05/17 09:58:12;;;;;;;;;;;;;;;-140.72;0.00;52315.78;5097355;28;20014;-71
2023/05/17 10:00:38;;;;;;;;;;;;;;;-140.72;0.00;52382.75;5093486;28;19924;-70
2023/05/17 10:03:04;;;;;;;;;;;;;;;-140.72;0.00;52317.81;5094913;28;20781;-70
2023/05/17 10:05:30;;;;;;;;;;;;;;;-140.72;0.00;52305.63;5092284;28;19920;-70
2023/05/17 10:07:55;;;;;;;;;;;;;;;-140.72;0.00;52327.97;5095710;28;19935;-70
2023/05/17 10:10:20;;;;;;;;;;;;;;;-140.72;0.00;52252.88;5093779;28;19927;-71
2023/05/17 10:12:46;;;;;;;;;;;;;;;-140.72;0.00;52281.28;5113862;27;20015;-72
2023/05/17 10:15:11;;;;;;;;;;;;;;;-140.72;0.00;52311.72;5083247;28;20374;-71
2023/05/17 10:17:40;;;;;;;;;;;;;;;-140.72;0.00;52248.81;5085552;28;20392;-72
2023/05/17 10:20:07;;;;;;;;;;;;;;;-140.72;0.00;52244.78;5100152;28;19973;-71
2023/05/17 10:22:32;;;;;;;;;;;;;;;-140.72;0.00;52252.88;5092486;28;20313;-71
2023/05/17 10:24:58;;;;;;;;;;;;;;;-140.72;0.00;52194.03;5101325;28;19965;-72
2023/05/17 10:27:24;;;;;;;;;;;;;;;-140.72;0.00;52273.19;5103570;28;20019;-72
2023/05/17 10:29:50;;;;;;;;;;;;;;;-140.72;0.00;52216.34;5100572;28;20434;-71
2023/05/17 10:32:17;;;;;;;;;;;;;;;-140.72;0.00;52212.31;5099495;27;20010;-72
2023/05/17 10:34:44;;;;;;;;;;;;;;;-140.72;0.00;52198.09;5092985;28;20007;-75
2023/05/17 10:37:10;;;;;;;;;;;;;;;-140.72;0.00;52183.91;5094590;28;19927;-74
2023/05/17 10:39:37;;;;;;;;;;;;;;;-140.72;0.00;52183.91;5087737;28;20347;-72
2023/05/17 10:42:05;;;;;;;;;;;;;;;-140.72;0.00;52232.59;5080126;28;19920;-71
2023/05/17 10:44:32;;;;;;;;;;;;;;;-140.72;0.00;52196.06;5096139;28;20366;-72
2023/05/17 10:46:58;;;;;;;;;;;;;;;-140.72;0.00;52175.78;5094912;28;19924;-74
2023/05/17 10:49:25;;;;;;;;;;;;;;;-140.72;0.00;52228.53;5087673;28;19920;-72
2023/05/17 10:51:51;;;;;;;;;;;;;;;-140.72;0.00;52179.84;5089648;28;19920;-72
2023/05/17 10:54:19;;;;;;;;;;;;;;;-140.72;0.00;52194.03;5087914;28;20355;-71
2023/05/17 10:56:49;;;;;;;;;;;;;;;-140.72;0.00;52155.50;5100424;28;19974;-71
2023/05/17 10:59:25;;;;;;;;;;;;;;;-140.72;0.00;52179.84;5094893;28;20258;-73
2023/05/17 11:01:52;;;;;;;;;;;;;;;-140.72;0.00;52123.03;5094214;28;20386;-73
2023/05/17 11:04:22;;;;;;;;;;;;;;;-140.72;0.00;52157.53;5087711;28;19924;-72
2023/05/17 11:06:47;;;;;;;;;;;;;;;-140.72;0.00;52220.41;5101224;28;19923;-71
2023/05/17 11:09:14;;;;;;;;;;;;;;;-140.72;0.00;52196.06;5087369;28;19926;-72
2023/05/17 11:12:00;;;;;;;;;;;;;;;-140.72;0.00;52159.56;5096092;28;20006;-72
2023/05/17 11:14:25;;;;;;;;;;;;;;;-140.72;0.00;52137.22;5082129;28;20212;-72
2023/05/17 11:16:55;;;;;;;;;;;;;;;-140.72;0.00;52096.66;5097327;28;19920;-71
2023/05/17 11:19:20;;;;;;;;;;;;;;;-140.72;0.00;52086.50;5093981;28;19978;-72
2023/05/17 11:21:46;;;;;;;;;;;;;;;-140.72;0.00;52127.09;5094326;28;20478;-71
2023/05/17 11:24:15;;;;;;;;;;;;;;;-140.72;0.00;52110.84;5087716;28;20340;-71
2023/05/17 11:26:43;;;;;;;;;;;;;;;-140.72;0.00;52123.03;5089042;28;19967;-72
2023/05/17 11:29:09;;;;;;;;;;;;;;;-140.72;0.00;52118.97;5088791;28;20026;-72
2023/05/17 11:31:35;;;;;;;;;;;;;;;-140.72;0.00;52106.78;5089941;28;20015;-71
2023/05/17 11:34:03;;;;;;;;;;;;;;;-140.72;0.00;52135.19;5100322;28;19963;-71
2023/05/17 11:36:29;;;;;;;;;;;;;;;-140.72;0.00;52049.97;5087593;28;20006;-72
2023/05/17 11:39:11;;;;;;;;;;;;;;;-140.72;0.00;52108.81;5086211;28;20011;-71
2023/05/17 11:41:47;;;;;;;;;;;;;;;-140.72;0.00;52108.81;5095912;28;19927;-71
2023/05/17 11:44:13;;;;;;;;;;;;;;;-140.72;0.00;52206.22;5089111;28;19932;-71
2023/05/17 11:46:42;;;;;;;;;;;;;;;-140.72;0.00;52078.38;5090464;28;20325;-72
2023/05/17 11:49:08;;;;;;;;;;;;;;;-140.72;0.00;52165.63;5092769;28;19943;-71
2023/05/17 11:51:33;;;;;;;;;;;;;;;-140.72;0.00;52121.00;5095557;28;20018;-71
2023/05/17 11:54:02;;;;;;;;;;;;;;;-140.72;0.00;52088.53;5084570;28;19963;-71
2023/05/17 11:56:32;;;;;;;;;;;;;;;-140.72;0.00;52123.03;5086862;28;19928;-71
2023/05/17 11:58:58;;;;;;;;;;;;;;;-140.72;0.00;52110.84;5084771;28;19930;-71
2023/05/17 12:01:23;;;;;;;;;;;;;;;-140.72;0.00;52108.81;5095090;28;19921;-71
2023/05/17 12:03:54;;;;;;;;;;;;;;;-140.72;0.00;52092.59;5089731;28;19924;-71
2023/05/17 12:06:19;;;;;;;;;;;;;;;-140.72;0.00;52082.44;5089621;28;20291;-71
2023/05/17 12:08:45;;;;;;;;;;;;;;;-140.72;0.00;52070.28;5084496;28;20010;-71
2023/05/17 12:11:12;;;;;;;;;;;;;;;-140.72;0.00;52003.31;5089217;28;19923;-71
2023/05/17 12:13:39;;;;;;;;;;;;;;;-140.72;0.00;52056.06;5095806;28;20366;-71
2023/05/17 12:16:11;;;;;;;;;;;;;;;-140.72;0.00;52060.13;5084206;28;19974;-73
2023/05/17 12:18:39;;;;;;;;;;;;;;;-140.72;0.00;52056.06;5093806;28;19966;-72
2023/05/17 12:21:05;;;;;;;;;;;;;;;-140.72;0.00;51974.91;5094135;28;20006;-72